createdAt,value
2023-01-18T00:00:40.468Z,18.27
2023-01-18T00:01:22.505Z,18.30
2023-01-18T00:02:04.436Z,18.38
2023-01-18T00:02:46.929Z,16.98
2023-01-18T00:03:28.900Z,17.02
2023-01-18T00:04:10.840Z,16.88
2023-01-18T00:04:52.575Z,17.40
2023-01-18T00:05:34.947Z,17.35
2023-01-18T00:06:17.884Z,17.42
2023-01-18T00:06:59.789Z,15.18
2023-01-18T00:07:41.580Z,15.85
2023-01-18T00:08:23.396Z,16.63
2023-01-18T00:09:05.218Z,16.33
2023-01-18T00:09:46.989Z,16.70
2023-01-18T00:10:28.772Z,17.13
2023-01-18T00:11:13.199Z,18.27
2023-01-18T00:11:54.912Z,16.88
2023-01-18T00:12:36.600Z,17.08
2023-01-18T00:13:18.383Z,16.70
2023-01-18T00:14:02.583Z,16.55
2023-01-18T00:14:44.441Z,15.80
2023-01-18T00:15:28.701Z,16.30
2023-01-18T00:16:16.185Z,15.93
2023-01-18T00:16:58.040Z,16.50
2023-01-18T00:17:47.765Z,16.45
2023-01-18T00:18:29.635Z,16.17
2023-01-18T00:19:13.231Z,15.98
2023-01-18T00:19:54.954Z,15.70
2023-01-18T00:20:36.657Z,16.20
2023-01-18T00:21:18.455Z,15.27
2023-01-18T00:22:00.206Z,14.85
2023-01-18T00:22:42.606Z,15.00
2023-01-18T00:23:26.524Z,16.00
2023-01-18T00:24:11.635Z,15.30
2023-01-18T00:24:53.387Z,15.40
2023-01-18T00:25:35.073Z,15.35
2023-01-18T00:26:17.158Z,14.35
2023-01-18T00:26:59.053Z,13.55
2023-01-18T00:27:46.133Z,14.90
2023-01-18T00:28:28.487Z,13.95
2023-01-18T00:29:10.446Z,14.55
2023-01-18T00:29:52.440Z,13.25
2023-01-18T00:30:34.198Z,13.45
2023-01-18T00:31:20.746Z,14.00
2023-01-18T00:32:02.560Z,13.88
2023-01-18T00:32:48.097Z,13.85
2023-01-18T00:33:29.905Z,13.68
2023-01-18T00:34:11.742Z,13.45
2023-01-18T00:34:53.441Z,13.13
2023-01-18T00:35:35.151Z,13.75
2023-01-18T00:36:17.819Z,14.30
2023-01-18T00:36:59.615Z,14.30
2023-01-18T00:37:41.893Z,13.20
2023-01-18T00:38:23.820Z,14.18
2023-01-18T00:39:05.693Z,14.13
2023-01-18T00:39:47.639Z,13.23
2023-01-18T00:40:30.224Z,13.27
2023-01-18T00:41:11.962Z,13.23
2023-01-18T00:42:12.188Z,13.20
2023-01-18T00:43:12.763Z,13.30
2023-01-18T00:43:54.653Z,13.13
2023-01-18T00:44:36.581Z,14.00
2023-01-18T00:45:18.671Z,13.50
2023-01-18T00:46:00.437Z,12.40
2023-01-18T00:46:42.188Z,12.52
2023-01-18T00:47:23.911Z,13.10
2023-01-18T00:48:05.871Z,12.73
2023-01-18T00:48:50.844Z,12.68
2023-01-18T00:49:32.584Z,12.27
2023-01-18T00:50:14.598Z,12.43
2023-01-18T00:50:56.515Z,12.27
2023-01-18T00:51:38.229Z,12.68
2023-01-18T00:52:20.127Z,12.57
2023-01-18T00:53:01.953Z,12.27
2023-01-18T00:53:44.274Z,11.30
2023-01-18T00:54:26.117Z,12.05
2023-01-18T00:55:08.799Z,12.10
2023-01-18T00:55:52.927Z,12.10
2023-01-18T00:56:34.677Z,11.55
2023-01-18T00:57:16.396Z,11.93
2023-01-18T00:57:58.132Z,12.70
2023-01-18T00:58:40.402Z,12.40
2023-01-18T00:59:22.220Z,12.18
2023-01-18T01:00:04.782Z,12.52
2023-01-18T01:00:51.222Z,12.40
2023-01-18T01:01:33.139Z,12.40
2023-01-18T01:02:15.420Z,12.48
2023-01-18T01:02:57.629Z,12.63
2023-01-18T01:04:00.902Z,12.32
2023-01-18T01:05:01.554Z,12.25
2023-01-18T01:06:01.995Z,12.00
2023-01-18T01:06:44.282Z,11.70
2023-01-18T01:07:26.245Z,12.43
2023-01-18T01:08:08.741Z,12.43
2023-01-18T01:08:53.270Z,11.95
2023-01-18T01:09:35.141Z,11.73
2023-01-18T01:10:16.945Z,11.60
2023-01-18T01:11:15.069Z,11.05
2023-01-18T01:12:17.331Z,10.55
2023-01-18T01:13:19.644Z,11.50
2023-01-18T01:14:20.091Z,11.05
2023-01-18T01:15:20.346Z,10.60
2023-01-18T01:16:25.847Z,12.00
2023-01-18T01:17:25.878Z,12.00
2023-01-18T01:18:27.031Z,10.95
2023-01-18T01:19:27.314Z,10.77
2023-01-18T01:20:28.911Z,11.60
2023-01-18T01:21:29.289Z,11.18
2023-01-18T01:22:29.430Z,11.30
2023-01-18T01:23:34.889Z,11.82
2023-01-18T01:24:37.727Z,10.20
2023-01-18T01:25:40.061Z,11.55
2023-01-18T01:26:21.867Z,10.70
2023-01-18T01:27:03.907Z,10.77
2023-01-18T01:27:46.303Z,10.90
2023-01-18T01:28:28.017Z,10.48
2023-01-18T01:29:09.786Z,10.65
2023-01-18T01:29:52.582Z,10.70
2023-01-18T01:30:34.465Z,10.50
2023-01-18T01:31:17.525Z,10.55
2023-01-18T01:31:59.431Z,10.73
2023-01-18T01:32:41.145Z,10.63
2023-01-18T01:33:22.943Z,10.30
2023-01-18T01:34:04.885Z,10.77
2023-01-18T01:34:46.637Z,10.90
2023-01-18T01:35:28.399Z,10.77
2023-01-18T01:36:19.122Z,11.40
2023-01-18T01:37:00.880Z,11.52
2023-01-18T01:37:42.601Z,10.90
2023-01-18T01:38:24.839Z,10.33
2023-01-18T01:39:11.042Z,10.02
2023-01-18T01:39:54.844Z,10.07
2023-01-18T01:40:36.575Z,10.57
2023-01-18T01:41:25.388Z,10.73
2023-01-18T01:42:11.311Z,10.30
2023-01-18T01:42:53.081Z,10.55
2023-01-18T01:43:46.101Z,10.60
2023-01-18T01:44:29.885Z,10.70
2023-01-18T01:45:11.707Z,10.00
2023-01-18T01:45:53.544Z,10.35
2023-01-18T01:46:38.578Z,9.73
2023-01-18T01:47:31.524Z,10.50
2023-01-18T01:48:13.330Z,10.70
2023-01-18T01:49:19.921Z,10.65
2023-01-18T01:50:14.902Z,10.48
2023-01-18T01:50:56.942Z,10.35
2023-01-18T01:52:00.924Z,11.60
2023-01-18T01:52:48.301Z,10.15
2023-01-18T01:53:30.058Z,10.70
2023-01-18T01:54:22.960Z,10.95
2023-01-18T01:55:11.445Z,10.18
2023-01-18T01:55:53.268Z,10.35
2023-01-18T01:56:35.016Z,10.63
2023-01-18T01:57:24.710Z,10.82
2023-01-18T01:58:21.011Z,11.60
2023-01-18T01:59:04.460Z,10.00
2023-01-18T02:00:00.367Z,10.00
2023-01-18T02:00:43.082Z,10.48
2023-01-18T02:01:26.069Z,9.70
2023-01-18T02:02:08.144Z,9.77
2023-01-18T02:03:20.265Z,10.30
2023-01-18T02:04:03.029Z,10.93
2023-01-18T02:04:46.529Z,10.18
2023-01-18T02:05:31.005Z,9.50
2023-01-18T02:06:31.264Z,10.43
2023-01-18T02:07:13.292Z,10.55
2023-01-18T02:07:58.355Z,10.73
2023-01-18T02:08:40.414Z,10.65
2023-01-18T02:09:23.362Z,9.98
2023-01-18T02:10:06.267Z,10.48
2023-01-18T02:10:52.077Z,11.20
2023-01-18T02:11:34.155Z,10.10
2023-01-18T02:12:16.271Z,10.43
2023-01-18T02:12:59.642Z,10.05
2023-01-18T02:13:41.809Z,10.18
2023-01-18T02:14:27.542Z,9.82
2023-01-18T02:15:09.907Z,10.30
2023-01-18T02:16:30.368Z,9.68
2023-01-18T02:17:39.985Z,10.80
2023-01-18T02:18:35.713Z,10.13
2023-01-18T02:19:17.582Z,9.73
2023-01-18T02:20:40.849Z,9.93
2023-01-18T02:21:40.465Z,10.40
2023-01-18T02:22:34.082Z,10.50
2023-01-18T02:23:33.200Z,10.10
2023-01-18T02:24:45.458Z,9.88
2023-01-18T02:25:50.624Z,9.70
2023-01-18T02:26:48.536Z,11.13
2023-01-18T02:27:46.317Z,10.30
2023-01-18T02:28:33.686Z,9.48
2023-01-18T02:29:19.523Z,9.98
2023-01-18T02:30:06.376Z,9.70
2023-01-18T02:30:54.191Z,9.40
2023-01-18T02:31:52.305Z,10.30
2023-01-18T02:33:05.326Z,10.20
2023-01-18T02:34:13.423Z,10.55
2023-01-18T02:35:41.538Z,10.10
2023-01-18T02:36:39.386Z,10.15
2023-01-18T02:37:33.217Z,10.45
2023-01-18T02:38:31.114Z,11.13
2023-01-18T02:39:38.343Z,9.48
2023-01-18T02:41:14.351Z,10.50
2023-01-18T02:42:24.585Z,10.48
2023-01-18T02:43:28.412Z,9.70
2023-01-18T02:44:28.851Z,10.20
2023-01-18T02:45:41.012Z,10.40
2023-01-18T02:46:38.752Z,10.02
2023-01-18T02:47:21.664Z,10.65
2023-01-18T02:48:04.288Z,10.50
2023-01-18T02:48:47.150Z,9.27
2023-01-18T02:49:32.181Z,10.00
2023-01-18T02:50:26.614Z,10.10
2023-01-18T02:51:09.260Z,9.70
2023-01-18T02:52:04.326Z,9.60
2023-01-18T02:52:53.561Z,9.30
2023-01-18T02:53:40.193Z,10.18
2023-01-18T02:54:24.916Z,10.25
2023-01-18T02:55:27.092Z,10.40
2023-01-18T02:56:24.719Z,9.70
2023-01-18T02:57:13.395Z,9.80
2023-01-18T02:58:01.824Z,9.50
2023-01-18T02:59:10.170Z,9.50
2023-01-18T02:59:54.828Z,9.32
2023-01-18T03:00:40.222Z,9.38
2023-01-18T03:01:37.042Z,9.35
2023-01-18T03:02:22.215Z,10.02
2023-01-18T03:03:07.220Z,9.65
2023-01-18T03:03:51.683Z,9.70
2023-01-18T03:04:56.648Z,9.30
2023-01-18T03:05:42.223Z,9.90
2023-01-18T03:06:27.606Z,10.05
2023-01-18T03:07:17.637Z,9.45
2023-01-18T03:08:14.349Z,8.90
2023-01-18T03:08:58.625Z,9.45
2023-01-18T03:09:42.329Z,9.40
2023-01-18T03:10:28.562Z,9.80
2023-01-18T03:11:19.720Z,10.05
2023-01-18T03:12:15.355Z,8.63
2023-01-18T03:13:15.166Z,9.95
2023-01-18T03:13:59.124Z,9.05
2023-01-18T03:15:01.627Z,9.48
2023-01-18T03:15:55.442Z,9.50
2023-01-18T03:16:57.902Z,9.27
2023-01-18T03:17:51.874Z,9.52
2023-01-18T03:18:39.285Z,9.30
2023-01-18T03:19:41.354Z,10.40
2023-01-18T03:20:27.614Z,9.27
2023-01-18T03:21:09.436Z,9.75
2023-01-18T03:21:55.365Z,9.40
2023-01-18T03:23:28.056Z,9.48
2023-01-18T03:24:13.559Z,9.85
2023-01-18T03:24:55.368Z,9.40
2023-01-18T03:25:41.381Z,9.00
2023-01-18T03:26:24.775Z,10.05
2023-01-18T03:27:26.025Z,9.43
2023-01-18T03:28:41.358Z,8.70
2023-01-18T03:29:42.398Z,9.15
2023-01-18T03:30:45.454Z,9.32
2023-01-18T03:31:52.989Z,10.30
2023-01-18T03:32:53.783Z,9.50
2023-01-18T03:33:48.841Z,9.68
2023-01-18T03:34:55.485Z,8.93
2023-01-18T03:35:38.609Z,8.68
2023-01-18T03:36:33.042Z,9.10
2023-01-18T03:37:20.772Z,8.88
2023-01-18T03:38:02.530Z,8.50
2023-01-18T03:38:47.374Z,9.10
2023-01-18T03:39:36.707Z,8.75
2023-01-18T03:40:23.619Z,9.10
2023-01-18T03:41:07.552Z,9.25
2023-01-18T03:41:53.586Z,9.40
2023-01-18T03:43:11.427Z,9.88
2023-01-18T03:43:56.643Z,8.70
2023-01-18T03:44:52.758Z,9.15
2023-01-18T03:45:39.527Z,8.95
2023-01-18T03:46:23.651Z,8.50
2023-01-18T03:47:06.743Z,9.13
2023-01-18T03:47:50.348Z,9.15
2023-01-18T03:48:35.267Z,9.18
2023-01-18T03:49:18.140Z,9.13
2023-01-18T03:50:00.035Z,8.82
2023-01-18T03:50:52.813Z,8.68
2023-01-18T03:51:54.479Z,9.65
2023-01-18T03:52:45.108Z,9.68
2023-01-18T03:53:40.531Z,9.10
2023-01-18T03:54:36.356Z,9.40
2023-01-18T03:55:25.387Z,9.52
2023-01-18T03:56:34.629Z,9.80
2023-01-18T03:57:32.044Z,9.55
2023-01-18T03:58:19.541Z,9.27
2023-01-18T03:59:04.451Z,9.23
2023-01-18T03:59:47.544Z,9.13
2023-01-18T04:00:33.499Z,8.63
2023-01-18T04:01:15.905Z,9.18
2023-01-18T04:01:57.983Z,9.65
2023-01-18T04:02:40.047Z,10.20
2023-01-18T04:03:22.069Z,9.02
2023-01-18T04:04:03.886Z,10.20
2023-01-18T04:04:45.659Z,9.73
2023-01-18T04:05:27.494Z,9.27
2023-01-18T04:06:09.680Z,9.48
2023-01-18T04:06:51.779Z,9.70
2023-01-18T04:07:33.594Z,9.40
2023-01-18T04:08:18.512Z,9.70
2023-01-18T04:09:00.464Z,9.70
2023-01-18T04:09:42.206Z,9.27
2023-01-18T04:10:23.942Z,9.60
2023-01-18T04:11:06.091Z,9.48
2023-01-18T04:11:47.819Z,9.65
2023-01-18T04:12:30.251Z,9.57
2023-01-18T04:13:11.972Z,9.63
2023-01-18T04:13:54.604Z,10.20
2023-01-18T04:14:36.478Z,9.98
2023-01-18T04:15:18.222Z,9.35
2023-01-18T04:16:00.117Z,8.75
2023-01-18T04:16:42.037Z,9.50
2023-01-18T04:17:23.938Z,9.75
2023-01-18T04:18:06.502Z,10.10
2023-01-18T04:18:48.661Z,9.68
2023-01-18T04:19:30.648Z,9.55
2023-01-18T04:20:12.437Z,9.55
2023-01-18T04:20:58.699Z,9.10
2023-01-18T04:21:40.578Z,9.23
2023-01-18T04:22:22.562Z,9.45
2023-01-18T04:23:06.878Z,9.80
2023-01-18T04:23:48.619Z,9.80
2023-01-18T04:24:30.565Z,9.70
2023-01-18T04:25:12.496Z,9.85
2023-01-18T04:25:54.239Z,10.13
2023-01-18T04:26:36.164Z,9.85
2023-01-18T04:27:18.139Z,9.82
2023-01-18T04:28:00.129Z,9.70
2023-01-18T04:28:42.219Z,9.75
2023-01-18T04:29:23.980Z,9.65
2023-01-18T04:30:06.391Z,8.70
2023-01-18T04:30:50.143Z,8.90
2023-01-18T04:31:32.052Z,9.32
2023-01-18T04:32:13.795Z,9.27
2023-01-18T04:32:55.664Z,8.88
2023-01-18T04:33:37.668Z,9.40
2023-01-18T04:34:22.155Z,9.25
2023-01-18T04:35:04.126Z,9.73
2023-01-18T04:35:46.532Z,9.07
2023-01-18T04:36:30.550Z,9.30
2023-01-18T04:37:12.609Z,9.15
2023-01-18T04:37:54.378Z,9.80
2023-01-18T04:38:36.154Z,9.82
2023-01-18T04:39:18.213Z,10.32
2023-01-18T04:40:00.677Z,10.70
2023-01-18T04:40:43.006Z,9.70
2023-01-18T04:41:24.783Z,9.80
2023-01-18T04:42:06.695Z,9.18
2023-01-18T04:42:54.804Z,9.38
2023-01-18T04:43:36.682Z,8.80
2023-01-18T04:44:18.713Z,9.10
2023-01-18T04:45:00.689Z,9.35
2023-01-18T04:45:44.815Z,9.98
2023-01-18T04:46:27.095Z,9.20
2023-01-18T04:47:08.852Z,9.40
2023-01-18T04:47:50.632Z,9.57
2023-01-18T04:48:33.455Z,9.70
2023-01-18T04:49:17.412Z,8.73
2023-01-18T04:49:59.315Z,9.10
2023-01-18T04:50:47.657Z,9.70
2023-01-18T04:51:31.334Z,9.02
2023-01-18T04:52:13.088Z,10.10
2023-01-18T04:52:54.854Z,10.10
2023-01-18T04:53:36.707Z,9.50
2023-01-18T04:54:19.219Z,9.90
2023-01-18T04:55:01.208Z,9.88
2023-01-18T04:55:43.252Z,9.68
2023-01-18T04:56:25.003Z,9.95
2023-01-18T04:57:06.789Z,9.90
2023-01-18T04:57:56.392Z,9.98
2023-01-18T04:58:38.216Z,9.70
2023-01-18T04:59:20.023Z,10.13
2023-01-18T05:00:02.263Z,9.90
2023-01-18T05:00:46.941Z,10.27
2023-01-18T05:01:32.187Z,9.20
2023-01-18T05:02:16.005Z,9.30
2023-01-18T05:02:58.160Z,8.63
2023-01-18T05:03:41.382Z,8.95
2023-01-18T05:04:23.101Z,10.00
2023-01-18T05:05:06.011Z,9.90
2023-01-18T05:05:47.756Z,9.32
2023-01-18T05:06:31.831Z,10.10
2023-01-18T05:07:13.829Z,10.25
2023-01-18T05:07:58.203Z,10.20
2023-01-18T05:08:43.090Z,10.30
2023-01-18T05:09:24.876Z,9.80
2023-01-18T05:10:06.932Z,9.82
2023-01-18T05:10:48.777Z,9.50
2023-01-18T05:11:30.511Z,9.80
2023-01-18T05:12:14.647Z,10.00
2023-01-18T05:12:56.817Z,10.15
2023-01-18T05:13:42.001Z,10.20
2023-01-18T05:14:23.917Z,10.32
2023-01-18T05:15:06.855Z,9.32
2023-01-18T05:15:48.650Z,9.75
2023-01-18T05:16:30.536Z,10.98
2023-01-18T05:17:12.355Z,9.60
2023-01-18T05:17:54.270Z,10.20
2023-01-18T05:18:36.317Z,10.25
2023-01-18T05:19:18.107Z,10.63
2023-01-18T05:20:03.150Z,11.30
2023-01-18T05:20:44.923Z,11.10
2023-01-18T05:21:26.883Z,9.98
2023-01-18T05:22:08.963Z,10.93
2023-01-18T05:22:53.008Z,11.70
2023-01-18T05:23:37.302Z,12.02
2023-01-18T05:24:19.196Z,12.02
2023-01-18T05:25:01.942Z,12.63
2023-01-18T05:25:43.950Z,12.68
2023-01-18T05:26:25.967Z,12.10
2023-01-18T05:27:09.912Z,12.02
2023-01-18T05:27:51.876Z,11.68
2023-01-18T05:28:33.660Z,11.75
2023-01-18T05:29:15.428Z,11.32
2023-01-18T05:29:59.972Z,12.32
2023-01-18T05:30:42.969Z,12.50
2023-01-18T05:31:25.529Z,11.90
2023-01-18T05:32:07.342Z,11.93
2023-01-18T05:32:49.306Z,11.90
2023-01-18T05:33:31.405Z,11.57
2023-01-18T05:34:13.159Z,11.38
2023-01-18T05:34:54.898Z,11.80
2023-01-18T05:35:37.050Z,11.70
2023-01-18T05:36:19.028Z,12.20
2023-01-18T05:37:01.097Z,12.25
2023-01-18T05:37:45.122Z,12.05
2023-01-18T05:38:26.939Z,12.27
2023-01-18T05:39:09.381Z,11.90
2023-01-18T05:39:51.355Z,10.88
2023-01-18T05:40:33.215Z,11.52
2023-01-18T05:41:15.011Z,10.82
2023-01-18T05:41:59.938Z,11.55
2023-01-18T05:42:41.918Z,12.07
2023-01-18T05:43:25.424Z,12.27
2023-01-18T05:44:07.294Z,11.70
2023-01-18T05:44:49.345Z,11.63
2023-01-18T05:45:31.631Z,11.48
2023-01-18T05:46:13.984Z,10.90
2023-01-18T05:46:56.078Z,11.60
2023-01-18T05:47:37.937Z,11.20
2023-01-18T05:48:20.205Z,12.00
2023-01-18T05:49:02.021Z,12.15
2023-01-18T05:49:43.815Z,11.73
2023-01-18T05:50:25.605Z,11.20
2023-01-18T05:51:09.758Z,11.15
2023-01-18T05:51:51.661Z,10.90
2023-01-18T05:52:34.056Z,11.20
2023-01-18T05:53:18.581Z,11.55
2023-01-18T05:54:00.342Z,12.00
2023-01-18T05:54:42.333Z,11.38
2023-01-18T05:55:25.063Z,11.32
2023-01-18T05:56:08.606Z,11.38
2023-01-18T05:56:50.466Z,12.07
2023-01-18T05:57:32.483Z,11.63
2023-01-18T05:58:14.313Z,10.50
2023-01-18T05:58:56.106Z,11.32
2023-01-18T05:59:37.859Z,11.75
2023-01-18T06:00:20.092Z,10.90
2023-01-18T06:01:02.078Z,11.82
2023-01-18T06:01:44.143Z,11.70
2023-01-18T06:02:26.028Z,11.60
2023-01-18T06:03:10.899Z,11.85
2023-01-18T06:03:52.746Z,11.98
2023-01-18T06:04:35.376Z,11.05
2023-01-18T06:05:17.273Z,11.02
2023-01-18T06:05:59.256Z,10.63
2023-01-18T06:06:41.156Z,11.18
2023-01-18T06:07:24.998Z,11.45
2023-01-18T06:08:06.964Z,11.75
2023-01-18T06:08:48.861Z,11.65
2023-01-18T06:09:30.591Z,11.15
2023-01-18T06:10:12.403Z,12.40
2023-01-18T06:10:55.309Z,12.15
2023-01-18T06:11:37.140Z,12.38
2023-01-18T06:12:19.051Z,12.05
2023-01-18T06:13:01.356Z,11.80
2023-01-18T06:13:43.210Z,12.18
2023-01-18T06:14:27.067Z,12.35
2023-01-18T06:15:12.412Z,12.13
2023-01-18T06:15:54.785Z,12.07
2023-01-18T06:16:36.782Z,11.85
2023-01-18T06:17:18.553Z,12.82
2023-01-18T06:18:00.487Z,11.68
2023-01-18T06:18:42.305Z,12.55
2023-01-18T06:19:24.157Z,12.40
2023-01-18T06:20:06.557Z,12.88
2023-01-18T06:20:48.423Z,12.55
2023-01-18T06:21:30.255Z,11.80
2023-01-18T06:22:12.073Z,12.80
2023-01-18T06:22:54.058Z,12.55
2023-01-18T06:23:36.133Z,12.45
2023-01-18T06:24:20.292Z,12.00
2023-01-18T06:25:02.181Z,12.35
2023-01-18T06:25:44.212Z,12.68
2023-01-18T06:26:26.277Z,13.80
2023-01-18T06:27:10.293Z,13.93
2023-01-18T06:27:52.120Z,13.05
2023-01-18T06:28:33.972Z,13.13
2023-01-18T06:29:15.742Z,13.43
2023-01-18T06:29:57.626Z,13.23
2023-01-18T06:30:39.678Z,12.82
2023-01-18T06:31:21.662Z,13.35
2023-01-18T06:32:03.607Z,12.50
2023-01-18T06:32:45.363Z,12.65
2023-01-18T06:33:27.135Z,12.68
2023-01-18T06:34:09.458Z,12.70
2023-01-18T06:34:51.231Z,11.93
2023-01-18T06:35:36.235Z,12.40
2023-01-18T06:36:20.293Z,13.15
2023-01-18T06:37:02.610Z,12.70
2023-01-18T06:37:47.457Z,12.25
2023-01-18T06:38:29.841Z,11.77
2023-01-18T06:39:12.006Z,12.57
2023-01-18T06:39:53.751Z,12.30
2023-01-18T06:40:35.664Z,11.82
2023-01-18T06:41:17.955Z,11.88
2023-01-18T06:42:00.215Z,12.82
2023-01-18T06:42:42.120Z,12.60
2023-01-18T06:43:24.542Z,12.02
2023-01-18T06:44:06.459Z,12.57
2023-01-18T06:44:48.811Z,13.20
2023-01-18T06:45:30.540Z,12.43
2023-01-18T06:46:12.298Z,11.93
2023-01-18T06:46:54.377Z,11.73
2023-01-18T06:47:36.398Z,13.15
2023-01-18T06:48:20.199Z,12.77
2023-01-18T06:49:02.109Z,12.73
2023-01-18T06:49:44.437Z,12.50
2023-01-18T06:50:26.303Z,12.80
2023-01-18T06:51:08.366Z,12.55
2023-01-18T06:51:52.438Z,12.93
2023-01-18T06:52:34.310Z,13.23
2023-01-18T06:53:18.424Z,12.82
2023-01-18T06:54:00.348Z,13.40
2023-01-18T06:54:42.834Z,13.30
2023-01-18T06:55:24.595Z,13.43
2023-01-18T06:56:10.322Z,13.25
2023-01-18T06:56:52.514Z,13.45
2023-01-18T06:57:34.741Z,14.07
2023-01-18T06:58:16.906Z,13.60
2023-01-18T06:59:02.260Z,12.95
2023-01-18T06:59:43.972Z,12.50
2023-01-18T07:00:25.780Z,12.60
2023-01-18T07:01:08.040Z,11.60
2023-01-18T07:01:49.924Z,12.30
2023-01-18T07:02:35.717Z,12.20
2023-01-18T07:03:17.975Z,13.10
2023-01-18T07:04:00.328Z,13.00
2023-01-18T07:04:44.169Z,12.50
2023-01-18T07:05:26.377Z,12.40
2023-01-18T07:06:08.550Z,13.32
2023-01-18T07:06:50.724Z,12.55
2023-01-18T07:07:35.287Z,13.30
2023-01-18T07:08:17.469Z,13.05
2023-01-18T07:09:01.509Z,15.50
2023-01-18T07:09:43.681Z,13.63
2023-01-18T07:10:25.788Z,14.00
2023-01-18T07:11:08.717Z,13.05
2023-01-18T07:11:50.883Z,12.82
2023-01-18T07:12:35.231Z,13.60
2023-01-18T07:13:17.366Z,12.55
2023-01-18T07:13:59.523Z,12.27
2023-01-18T07:14:41.754Z,12.60
2023-01-18T07:15:23.868Z,12.30
2023-01-18T07:16:08.730Z,12.90
2023-01-18T07:16:50.890Z,13.57
2023-01-18T07:17:33.051Z,13.48
2023-01-18T07:18:16.894Z,14.18
2023-01-18T07:19:01.773Z,13.05
2023-01-18T07:19:44.853Z,12.48
2023-01-18T07:20:26.964Z,12.73
2023-01-18T07:21:10.146Z,13.15
2023-01-18T07:21:53.754Z,12.90
2023-01-18T07:22:35.592Z,12.95
2023-01-18T07:23:17.431Z,13.00
2023-01-18T07:23:59.499Z,12.95
2023-01-18T07:24:41.487Z,13.02
2023-01-18T07:25:25.747Z,13.30
2023-01-18T07:26:09.047Z,12.55
2023-01-18T07:26:50.775Z,13.07
2023-01-18T07:27:32.921Z,12.40
2023-01-18T07:28:14.722Z,13.27
2023-01-18T07:28:56.541Z,12.90
2023-01-18T07:29:40.393Z,13.27
2023-01-18T07:30:22.172Z,13.10
2023-01-18T07:31:05.657Z,13.13
2023-01-18T07:31:48.096Z,14.65
2023-01-18T07:32:29.980Z,14.32
2023-01-18T07:33:11.908Z,12.90
2023-01-18T07:33:53.673Z,13.30
2023-01-18T07:34:35.466Z,12.77
2023-01-18T07:35:18.484Z,13.02
2023-01-18T07:36:02.364Z,13.63
2023-01-18T07:36:44.729Z,13.00
2023-01-18T07:37:26.510Z,14.20
2023-01-18T07:38:10.476Z,12.75
2023-01-18T07:38:52.411Z,12.63
2023-01-18T07:39:34.143Z,13.82
2023-01-18T07:40:16.197Z,13.48
2023-01-18T07:41:03.222Z,12.52
2023-01-18T07:41:48.063Z,13.05
2023-01-18T07:42:30.087Z,11.70
2023-01-18T07:43:12.216Z,12.38
2023-01-18T07:43:53.948Z,12.70
2023-01-18T07:44:35.806Z,13.07
2023-01-18T07:45:18.061Z,12.57
2023-01-18T07:46:00.700Z,12.75
2023-01-18T07:46:45.721Z,13.23
2023-01-18T07:47:27.498Z,13.32
2023-01-18T07:48:10.054Z,13.52
2023-01-18T07:48:52.715Z,13.60
2023-01-18T07:49:34.540Z,13.02
2023-01-18T07:50:16.878Z,13.02
2023-01-18T07:51:03.079Z,13.38
2023-01-18T07:51:47.483Z,14.60
2023-01-18T07:52:29.734Z,13.55
2023-01-18T07:53:11.970Z,13.57
2023-01-18T07:53:55.224Z,13.75
2023-01-18T07:54:37.525Z,13.63
2023-01-18T07:55:21.565Z,13.30
2023-01-18T07:56:04.725Z,13.70
2023-01-18T07:56:46.830Z,13.40
2023-01-18T07:57:29.003Z,14.27
2023-01-18T07:58:11.191Z,14.13
2023-01-18T07:58:53.761Z,14.20
2023-01-18T07:59:35.905Z,13.30
2023-01-18T08:00:18.342Z,13.07
2023-01-18T08:01:04.607Z,13.50
2023-01-18T08:01:46.758Z,13.85
2023-01-18T08:02:28.956Z,13.80
2023-01-18T08:03:17.756Z,13.75
2023-01-18T08:03:59.931Z,14.05
2023-01-18T08:04:42.071Z,14.25
2023-01-18T08:05:26.795Z,14.40
2023-01-18T08:06:11.896Z,14.65
2023-01-18T08:06:54.018Z,14.40
2023-01-18T08:07:36.830Z,13.50
2023-01-18T08:08:19.321Z,13.60
2023-01-18T08:09:01.669Z,14.65
2023-01-18T08:09:44.224Z,14.15
2023-01-18T08:10:27.512Z,14.18
2023-01-18T08:11:10.444Z,13.75
2023-01-18T08:11:52.578Z,13.30
2023-01-18T08:12:34.785Z,14.93
2023-01-18T08:13:19.024Z,14.65
2023-01-18T08:14:01.565Z,13.40
2023-01-18T08:14:45.602Z,13.57
2023-01-18T08:15:27.970Z,14.45
2023-01-18T08:16:11.986Z,14.90
2023-01-18T08:16:54.191Z,14.45
2023-01-18T08:17:36.549Z,14.18
2023-01-18T08:18:18.729Z,13.98
2023-01-18T08:19:00.896Z,15.65
2023-01-18T08:19:43.079Z,14.65
2023-01-18T08:20:25.207Z,14.10
2023-01-18T08:21:11.006Z,15.20
2023-01-18T08:21:53.107Z,14.95
2023-01-18T08:22:35.243Z,13.52
2023-01-18T08:23:17.811Z,13.98
2023-01-18T08:23:59.965Z,14.85
2023-01-18T08:24:42.124Z,15.50
2023-01-18T08:25:25.221Z,14.70
2023-01-18T08:26:09.834Z,14.68
2023-01-18T08:26:51.998Z,13.43
2023-01-18T08:27:34.199Z,14.10
2023-01-18T08:28:16.767Z,15.77
2023-01-18T08:28:58.932Z,14.90
2023-01-18T08:29:41.110Z,14.68
2023-01-18T08:30:24.277Z,14.05
2023-01-18T08:31:17.029Z,14.68
2023-01-18T08:32:00.713Z,14.43
2023-01-18T08:32:43.060Z,15.10
2023-01-18T08:33:25.211Z,15.00
2023-01-18T08:34:07.483Z,14.65
2023-01-18T08:34:52.087Z,14.40
2023-01-18T08:35:35.645Z,14.80
2023-01-18T08:36:19.243Z,14.15
2023-01-18T08:37:01.376Z,14.20
2023-01-18T08:37:44.509Z,15.48
2023-01-18T08:38:26.836Z,14.48
2023-01-18T08:39:09.141Z,14.13
2023-01-18T08:39:51.357Z,15.65
2023-01-18T08:40:33.537Z,15.35
2023-01-18T08:41:15.831Z,15.05
2023-01-18T08:41:58.087Z,15.50
2023-01-18T08:42:40.335Z,14.95
2023-01-18T08:43:24.185Z,16.02
2023-01-18T08:44:06.384Z,14.77
2023-01-18T08:44:48.775Z,14.77
2023-01-18T08:45:31.017Z,14.90
2023-01-18T08:46:13.165Z,14.95
2023-01-18T08:46:55.341Z,16.00
2023-01-18T08:47:37.532Z,15.80
2023-01-18T08:48:22.058Z,15.32
2023-01-18T08:49:06.362Z,15.95
2023-01-18T08:49:48.585Z,14.77
2023-01-18T08:50:31.716Z,15.02
2023-01-18T08:51:13.865Z,15.60
2023-01-18T08:51:57.402Z,15.70
2023-01-18T08:52:42.065Z,14.85
2023-01-18T08:53:24.213Z,15.30
2023-01-18T08:54:07.214Z,16.30
2023-01-18T08:54:49.363Z,15.98
2023-01-18T08:55:31.815Z,16.35
2023-01-18T08:56:14.807Z,15.75
2023-01-18T08:56:56.948Z,15.32
2023-01-18T08:57:39.082Z,15.90
2023-01-18T08:58:21.292Z,15.30
2023-01-18T08:59:03.845Z,16.25
2023-01-18T08:59:45.995Z,15.48
2023-01-18T09:00:28.608Z,15.07
2023-01-18T09:01:11.057Z,14.88
2023-01-18T09:01:53.418Z,15.68
2023-01-18T09:02:35.584Z,15.30
2023-01-18T09:03:21.438Z,15.57
2023-01-18T09:04:03.759Z,15.88
2023-01-18T09:04:48.567Z,14.77
2023-01-18T09:05:33.048Z,15.80
2023-01-18T09:06:19.316Z,14.88
2023-01-18T09:07:01.458Z,15.68
2023-01-18T09:07:45.318Z,15.65
2023-01-18T09:08:28.065Z,15.30
2023-01-18T09:09:11.831Z,14.98
2023-01-18T09:09:53.997Z,15.68
2023-01-18T09:10:37.572Z,16.00
2023-01-18T09:11:22.319Z,14.73
2023-01-18T09:12:04.499Z,16.17
2023-01-18T09:12:46.897Z,16.38
2023-01-18T09:13:29.067Z,15.88
2023-01-18T09:14:11.226Z,15.60
2023-01-18T09:14:53.359Z,15.32
2023-01-18T09:15:35.564Z,14.35
2023-01-18T09:16:17.796Z,14.10
2023-01-18T09:17:00.019Z,15.30
2023-01-18T09:17:42.161Z,15.48
2023-01-18T09:18:24.328Z,14.60
2023-01-18T09:19:06.584Z,14.60
2023-01-18T09:19:48.759Z,15.82
2023-01-18T09:20:30.923Z,16.63
2023-01-18T09:21:13.950Z,15.75
2023-01-18T09:21:56.110Z,15.70
2023-01-18T09:22:38.792Z,16.25
2023-01-18T09:23:21.351Z,15.95
2023-01-18T09:24:03.515Z,15.70
2023-01-18T09:24:45.803Z,15.98
2023-01-18T09:25:27.931Z,14.90
2023-01-18T09:26:17.036Z,14.90
2023-01-18T09:26:59.436Z,15.80
2023-01-18T09:27:42.333Z,16.90
2023-01-18T09:28:24.507Z,17.33
2023-01-18T09:29:06.652Z,15.68
2023-01-18T09:29:52.296Z,15.65
2023-01-18T09:30:35.932Z,16.60
2023-01-18T09:31:18.395Z,17.38
2023-01-18T09:32:00.575Z,16.02
2023-01-18T09:32:43.041Z,16.73
2023-01-18T09:33:34.012Z,15.02
2023-01-18T09:34:20.302Z,16.58
2023-01-18T09:35:02.839Z,16.17
2023-01-18T09:35:47.613Z,16.88
2023-01-18T09:36:30.861Z,17.20
2023-01-18T09:37:15.309Z,18.15
2023-01-18T09:37:57.871Z,18.20
2023-01-18T09:38:40.715Z,17.75
2023-01-18T09:39:23.189Z,15.98
2023-01-18T09:40:05.590Z,16.50
2023-01-18T09:40:47.905Z,16.95
2023-01-18T09:41:36.237Z,16.50
2023-01-18T09:42:38.567Z,15.82
2023-01-18T09:43:25.373Z,17.83
2023-01-18T09:44:10.799Z,16.95
2023-01-18T09:44:54.735Z,16.90
2023-01-18T09:45:38.620Z,16.60
2023-01-18T09:46:22.370Z,16.40
2023-01-18T09:47:21.703Z,17.10